sensor_id;sensor_type;location;lat;lon;timestamp;P1;durP1;ratioP1;P2;durP2;ratioP2
14933;SDS011;7560;51.364;12.384;2022-09-09T00:10:14;2.47;;;1.80;;
14933;SDS011;7560;51.364;12.384;2022-09-09T00:15:23;3.67;;;1.67;;
14933;SDS011;7560;51.364;12.384;2022-09-09T00:20:43;2.22;;;1.70;;
14933;SDS011;7560;51.364;12.384;2022-09-09T00:31:28;2.47;;;1.42;;
14933;SDS011;7560;51.364;12.384;2022-09-09T00:36:31;2.20;;;1.70;;
14933;SDS011;7560;51.364;12.384;2022-09-09T00:41:49;3.33;;;2.00;;
14933;SDS011;7560;51.364;12.384;2022-09-09T00:57:58;2.35;;;1.88;;
14933;SDS011;7560;51.364;12.384;2022-09-09T01:25:08;3.03;;;1.80;;
14933;SDS011;7560;51.364;12.384;2022-09-09T01:30:21;2.40;;;1.95;;
14933;SDS011;7560;51.364;12.384;2022-09-09T01:35:28;2.15;;;1.60;;
14933;SDS011;7560;51.364;12.384;2022-09-09T01:40:31;2.17;;;1.60;;
14933;SDS011;7560;51.364;12.384;2022-09-09T01:45:33;4.47;;;1.70;;
14933;SDS011;7560;51.364;12.384;2022-09-09T01:50:35;4.68;;;1.80;;
14933;SDS011;7560;51.364;12.384;2022-09-09T01:55:38;3.65;;;1.60;;
14933;SDS011;7560;51.364;12.384;2022-09-09T02:00:43;2.40;;;1.63;;
14933;SDS011;7560;51.364;12.384;2022-09-09T02:06:00;3.42;;;1.95;;
14933;SDS011;7560;51.364;12.384;2022-09-09T02:11:22;2.15;;;1.83;;
14933;SDS011;7560;51.364;12.384;2022-09-09T02:21:42;2.83;;;1.67;;
14933;SDS011;7560;51.364;12.384;2022-09-09T02:26:46;2.60;;;1.98;;
14933;SDS011;7560;51.364;12.384;2022-09-09T02:31:53;3.70;;;2.03;;
14933;SDS011;7560;51.364;12.384;2022-09-09T02:37:00;4.20;;;2.22;;
14933;SDS011;7560;51.364;12.384;2022-09-09T02:42:04;5.45;;;1.83;;
14933;SDS011;7560;51.364;12.384;2022-09-09T02:52:14;2.40;;;1.52;;
14933;SDS011;7560;51.364;12.384;2022-09-09T02:57:23;3.33;;;1.70;;
14933;SDS011;7560;51.364;12.384;2022-09-09T03:02:28;3.70;;;1.75;;
14933;SDS011;7560;51.364;12.384;2022-09-09T03:07:31;4.35;;;1.80;;
14933;SDS011;7560;51.364;12.384;2022-09-09T03:12:33;2.15;;;1.70;;
14933;SDS011;7560;51.364;12.384;2022-09-09T03:17:35;3.05;;;1.80;;
14933;SDS011;7560;51.364;12.384;2022-09-09T03:22:37;4.35;;;1.73;;
14933;SDS011;7560;51.364;12.384;2022-09-09T03:27:39;2.55;;;1.65;;
14933;SDS011;7560;51.364;12.384;2022-09-09T03:32:41;1.92;;;1.73;;
14933;SDS011;7560;51.364;12.384;2022-09-09T03:37:48;2.33;;;1.80;;
14933;SDS011;7560;51.364;12.384;2022-09-09T03:42:50;2.22;;;1.58;;
14933;SDS011;7560;51.364;12.384;2022-09-09T03:47:52;4.78;;;1.70;;
14933;SDS011;7560;51.364;12.384;2022-09-09T03:52:54;2.45;;;1.60;;
14933;SDS011;7560;51.364;12.384;2022-09-09T03:57:55;6.03;;;1.73;;
14933;SDS011;7560;51.364;12.384;2022-09-09T04:02:57;4.10;;;1.77;;
14933;SDS011;7560;51.364;12.384;2022-09-09T04:07:58;3.60;;;1.70;;
14933;SDS011;7560;51.364;12.384;2022-09-09T04:13:00;2.53;;;1.80;;
14933;SDS011;7560;51.364;12.384;2022-09-09T04:18:02;3.45;;;1.80;;
14933;SDS011;7560;51.364;12.384;2022-09-09T04:23:04;4.90;;;1.70;;
14933;SDS011;7560;51.364;12.384;2022-09-09T04:28:06;4.90;;;1.50;;
14933;SDS011;7560;51.364;12.384;2022-09-09T04:33:08;4.20;;;1.77;;
14933;SDS011;7560;51.364;12.384;2022-09-09T04:38:10;4.45;;;1.80;;
14933;SDS011;7560;51.364;12.384;2022-09-09T04:43:12;2.78;;;1.70;;
14933;SDS011;7560;51.364;12.384;2022-09-09T04:48:15;3.72;;;1.58;;
14933;SDS011;7560;51.364;12.384;2022-09-09T04:53:17;3.17;;;1.70;;
14933;SDS011;7560;51.364;12.384;2022-09-09T04:58:19;3.97;;;1.70;;
14933;SDS011;7560;51.364;12.384;2022-09-09T05:03:22;3.03;;;1.30;;
14933;SDS011;7560;51.364;12.384;2022-09-09T05:08:24;6.60;;;1.88;;
14933;SDS011;7560;51.364;12.384;2022-09-09T05:13:26;1.83;;;1.50;;
14933;SDS011;7560;51.364;12.384;2022-09-09T05:18:28;4.10;;;1.70;;
14933;SDS011;7560;51.364;12.384;2022-09-09T05:23:30;2.42;;;1.55;;
14933;SDS011;7560;51.364;12.384;2022-09-09T05:28:35;4.40;;;1.45;;
14933;SDS011;7560;51.364;12.384;2022-09-09T05:33:37;3.15;;;2.00;;
14933;SDS011;7560;51.364;12.384;2022-09-09T05:38:42;4.53;;;1.50;;
14933;SDS011;7560;51.364;12.384;2022-09-09T05:43:44;2.85;;;1.60;;
14933;SDS011;7560;51.364;12.384;2022-09-09T05:48:48;2.28;;;1.48;;
14933;SDS011;7560;51.364;12.384;2022-09-09T05:53:52;5.30;;;1.60;;
14933;SDS011;7560;51.364;12.384;2022-09-09T05:58:54;7.28;;;1.80;;
14933;SDS011;7560;51.364;12.384;2022-09-09T06:03:57;3.25;;;1.42;;
14933;SDS011;7560;51.364;12.384;2022-09-09T06:08:58;2.42;;;1.40;;
14933;SDS011;7560;51.364;12.384;2022-09-09T06:14:00;3.10;;;1.40;;
14933;SDS011;7560;51.364;12.384;2022-09-09T06:19:02;3.80;;;1.40;;
14933;SDS011;7560;51.364;12.384;2022-09-09T06:24:05;2.90;;;1.20;;
14933;SDS011;7560;51.364;12.384;2022-09-09T06:29:08;6.53;;;1.60;;
14933;SDS011;7560;51.364;12.384;2022-09-09T06:34:10;2.67;;;1.30;;
14933;SDS011;7560;51.364;12.384;2022-09-09T06:39:12;5.22;;;1.50;;
14933;SDS011;7560;51.364;12.384;2022-09-09T06:44:16;4.60;;;1.40;;
14933;SDS011;7560;51.364;12.384;2022-09-09T06:49:18;4.97;;;1.27;;
14933;SDS011;7560;51.364;12.384;2022-09-09T06:54:19;3.65;;;1.40;;
14933;SDS011;7560;51.364;12.384;2022-09-09T06:59:23;3.35;;;2.20;;
14933;SDS011;7560;51.364;12.384;2022-09-09T07:04:24;1.85;;;1.20;;
14933;SDS011;7560;51.364;12.384;2022-09-09T07:09:26;4.30;;;1.58;;
14933;SDS011;7560;51.364;12.384;2022-09-09T07:14:28;2.50;;;1.40;;
14933;SDS011;7560;51.364;12.384;2022-09-09T07:19:30;2.13;;;1.42;;
14933;SDS011;7560;51.364;12.384;2022-09-09T07:24:31;5.18;;;1.42;;
14933;SDS011;7560;51.364;12.384;2022-09-09T07:29:33;2.67;;;1.05;;
14933;SDS011;7560;51.364;12.384;2022-09-09T07:34:35;3.47;;;1.80;;
14933;SDS011;7560;51.364;12.384;2022-09-09T07:39:36;4.50;;;1.30;;
14933;SDS011;7560;51.364;12.384;2022-09-09T07:44:38;3.88;;;1.30;;
14933;SDS011;7560;51.364;12.384;2022-09-09T07:49:40;6.75;;;1.33;;
14933;SDS011;7560;51.364;12.384;2022-09-09T07:54:42;2.60;;;1.10;;
14933;SDS011;7560;51.364;12.384;2022-09-09T07:59:44;3.22;;;1.23;;
14933;SDS011;7560;51.364;12.384;2022-09-09T08:04:46;3.65;;;1.55;;
14933;SDS011;7560;51.364;12.384;2022-09-09T08:09:48;2.30;;;1.10;;
14933;SDS011;7560;51.364;12.384;2022-09-09T08:14:50;4.35;;;1.30;;
14933;SDS011;7560;51.364;12.384;2022-09-09T08:19:52;2.88;;;1.20;;
14933;SDS011;7560;51.364;12.384;2022-09-09T08:24:55;3.80;;;1.50;;
14933;SDS011;7560;51.364;12.384;2022-09-09T08:29:57;3.65;;;1.25;;
14933;SDS011;7560;51.364;12.384;2022-09-09T08:34:59;3.80;;;1.20;;
14933;SDS011;7560;51.364;12.384;2022-09-09T08:40:02;3.28;;;1.17;;
14933;SDS011;7560;51.364;12.384;2022-09-09T09:00:56;2.00;;;1.30;;
14933;SDS011;7560;51.364;12.384;2022-09-09T09:11:44;2.58;;;1.30;;
14933;SDS011;7560;51.364;12.384;2022-09-09T09:16:54;3.47;;;1.38;;
14933;SDS011;7560;51.364;12.384;2022-09-09T09:27:15;2.85;;;1.50;;
14933;SDS011;7560;51.364;12.384;2022-09-09T09:32:22;4.40;;;1.10;;
14933;SDS011;7560;51.364;12.384;2022-09-09T09:37:27;2.85;;;1.23;;
14933;SDS011;7560;51.364;12.384;2022-09-09T09:42:31;2.53;;;0.80;;
14933;SDS011;7560;51.364;12.384;2022-09-09T09:47:33;2.63;;;0.85;;
14933;SDS011;7560;51.364;12.384;2022-09-09T09:52:35;3.55;;;1.02;;
14933;SDS011;7560;51.364;12.384;2022-09-09T09:57:37;3.42;;;0.90;;
14933;SDS011;7560;51.364;12.384;2022-09-09T10:02:40;3.75;;;1.60;;
14933;SDS011;7560;51.364;12.384;2022-09-09T10:07:44;4.82;;;1.23;;
14933;SDS011;7560;51.364;12.384;2022-09-09T10:23:42;2.60;;;1.05;;
14933;SDS011;7560;51.364;12.384;2022-09-09T10:29:08;4.38;;;1.30;;
14933;SDS011;7560;51.364;12.384;2022-09-09T10:39:40;1.42;;;1.20;;
14933;SDS011;7560;51.364;12.384;2022-09-09T10:44:56;2.03;;;1.20;;
14933;SDS011;7560;51.364;12.384;2022-09-09T10:56:15;4.13;;;1.27;;
14933;SDS011;7560;51.364;12.384;2022-09-09T11:01:21;2.38;;;1.33;;
14933;SDS011;7560;51.364;12.384;2022-09-09T11:06:28;3.30;;;1.10;;
14933;SDS011;7560;51.364;12.384;2022-09-09T11:11:42;3.75;;;1.25;;
14933;SDS011;7560;51.364;12.384;2022-09-09T11:16:52;3.33;;;0.95;;
14933;SDS011;7560;51.364;12.384;2022-09-09T11:21:58;1.60;;;0.90;;
14933;SDS011;7560;51.364;12.384;2022-09-09T11:27:08;3.58;;;1.13;;
14933;SDS011;7560;51.364;12.384;2022-09-09T11:32:26;2.20;;;1.00;;
14933;SDS011;7560;51.364;12.384;2022-09-09T11:43:11;1.98;;;0.90;;
14933;SDS011;7560;51.364;12.384;2022-09-09T11:53:34;5.28;;;1.40;;
14933;SDS011;7560;51.364;12.384;2022-09-09T11:58:38;3.38;;;0.80;;
14933;SDS011;7560;51.364;12.384;2022-09-09T12:08:50;4.32;;;0.93;;
14933;SDS011;7560;51.364;12.384;2022-09-09T12:13:55;4.35;;;1.20;;
14933;SDS011;7560;51.364;12.384;2022-09-09T12:19:03;3.13;;;1.20;;
14933;SDS011;7560;51.364;12.384;2022-09-09T12:24:18;1.25;;;0.80;;
14933;SDS011;7560;51.364;12.384;2022-09-09T12:29:51;2.95;;;1.20;;
14933;SDS011;7560;51.364;12.384;2022-09-09T12:40:35;2.55;;;1.13;;
14933;SDS011;7560;51.364;12.384;2022-09-09T12:45:37;3.03;;;0.80;;
14933;SDS011;7560;51.364;12.384;2022-09-09T12:50:46;1.92;;;0.80;;
14933;SDS011;7560;51.364;12.384;2022-09-09T12:55:52;2.65;;;0.70;;
14933;SDS011;7560;51.364;12.384;2022-09-09T13:00:57;2.10;;;0.80;;
14933;SDS011;7560;51.364;12.384;2022-09-09T13:06:09;3.75;;;0.80;;
14933;SDS011;7560;51.364;12.384;2022-09-09T13:11:36;3.50;;;0.80;;
14933;SDS011;7560;51.364;12.384;2022-09-09T13:16:53;2.80;;;0.75;;
14933;SDS011;7560;51.364;12.384;2022-09-09T13:22:02;3.05;;;1.10;;
14933;SDS011;7560;51.364;12.384;2022-09-09T13:27:27;2.55;;;1.33;;
14933;SDS011;7560;51.364;12.384;2022-09-09T13:32:29;1.55;;;0.77;;
14933;SDS011;7560;51.364;12.384;2022-09-09T13:37:42;4.72;;;1.10;;
14933;SDS011;7560;51.364;12.384;2022-09-09T13:42:44;3.78;;;0.85;;
14933;SDS011;7560;51.364;12.384;2022-09-09T13:47:46;1.98;;;0.60;;
14933;SDS011;7560;51.364;12.384;2022-09-09T13:52:49;1.30;;;0.65;;
14933;SDS011;7560;51.364;12.384;2022-09-09T13:57:59;2.33;;;0.90;;
14933;SDS011;7560;51.364;12.384;2022-09-09T14:03:02;1.33;;;0.90;;
14933;SDS011;7560;51.364;12.384;2022-09-09T14:08:04;2.75;;;0.60;;
14933;SDS011;7560;51.364;12.384;2022-09-09T14:13:07;0.93;;;0.57;;
14933;SDS011;7560;51.364;12.384;2022-09-09T14:18:11;2.20;;;0.75;;
14933;SDS011;7560;51.364;12.384;2022-09-09T14:23:13;1.33;;;0.75;;
14933;SDS011;7560;51.364;12.384;2022-09-09T14:28:16;2.72;;;0.80;;
14933;SDS011;7560;51.364;12.384;2022-09-09T14:33:26;2.80;;;1.85;;
14933;SDS011;7560;51.364;12.384;2022-09-09T14:38:29;2.00;;;0.93;;
14933;SDS011;7560;51.364;12.384;2022-09-09T14:43:32;1.92;;;0.70;;
14933;SDS011;7560;51.364;12.384;2022-09-09T14:48:34;1.67;;;0.60;;
14933;SDS011;7560;51.364;12.384;2022-09-09T14:53:36;2.05;;;0.70;;
14933;SDS011;7560;51.364;12.384;2022-09-09T14:58:38;3.17;;;0.80;;
14933;SDS011;7560;51.364;12.384;2022-09-09T15:03:41;4.53;;;1.30;;
14933;SDS011;7560;51.364;12.384;2022-09-09T15:08:45;2.92;;;0.82;;
14933;SDS011;7560;51.364;12.384;2022-09-09T15:13:50;3.00;;;0.60;;
14933;SDS011;7560;51.364;12.384;2022-09-09T15:18:54;2.22;;;0.73;;
14933;SDS011;7560;51.364;12.384;2022-09-09T15:23:58;2.30;;;1.17;;
14933;SDS011;7560;51.364;12.384;2022-09-09T15:29:00;2.85;;;0.77;;
14933;SDS011;7560;51.364;12.384;2022-09-09T15:34:03;4.18;;;2.33;;
14933;SDS011;7560;51.364;12.384;2022-09-09T15:39:07;4.22;;;0.88;;
14933;SDS011;7560;51.364;12.384;2022-09-09T15:44:11;2.25;;;0.80;;
14933;SDS011;7560;51.364;12.384;2022-09-09T15:49:20;1.95;;;0.68;;
14933;SDS011;7560;51.364;12.384;2022-09-09T15:54:24;1.60;;;0.90;;
14933;SDS011;7560;51.364;12.384;2022-09-09T15:59:28;2.47;;;0.63;;
14933;SDS011;7560;51.364;12.384;2022-09-09T16:04:32;2.05;;;0.70;;
14933;SDS011;7560;51.364;12.384;2022-09-09T16:09:35;2.58;;;0.70;;
14933;SDS011;7560;51.364;12.384;2022-09-09T16:14:37;1.60;;;0.80;;
14933;SDS011;7560;51.364;12.384;2022-09-09T16:19:39;2.15;;;0.70;;
14933;SDS011;7560;51.364;12.384;2022-09-09T16:24:41;3.05;;;0.70;;
14933;SDS011;7560;51.364;12.384;2022-09-09T16:29:42;2.90;;;1.15;;
14933;SDS011;7560;51.364;12.384;2022-09-09T16:34:44;1.95;;;0.75;;
14933;SDS011;7560;51.364;12.384;2022-09-09T16:39:46;1.95;;;0.73;;
14933;SDS011;7560;51.364;12.384;2022-09-09T16:44:48;3.35;;;0.90;;
14933;SDS011;7560;51.364;12.384;2022-09-09T16:49:51;3.08;;;1.10;;
14933;SDS011;7560;51.364;12.384;2022-09-09T16:54:52;2.25;;;1.05;;
14933;SDS011;7560;51.364;12.384;2022-09-09T16:59:54;1.63;;;0.77;;
14933;SDS011;7560;51.364;12.384;2022-09-09T17:05:00;2.80;;;0.80;;
14933;SDS011;7560;51.364;12.384;2022-09-09T17:10:02;1.90;;;0.80;;
14933;SDS011;7560;51.364;12.384;2022-09-09T17:15:04;2.47;;;1.23;;
14933;SDS011;7560;51.364;12.384;2022-09-09T17:20:06;1.73;;;0.80;;
14933;SDS011;7560;51.364;12.384;2022-09-09T17:25:09;2.33;;;1.15;;
14933;SDS011;7560;51.364;12.384;2022-09-09T17:30:11;2.65;;;0.90;;
14933;SDS011;7560;51.364;12.384;2022-09-09T17:35:13;1.17;;;0.70;;
14933;SDS011;7560;51.364;12.384;2022-09-09T17:40:15;2.80;;;1.00;;
14933;SDS011;7560;51.364;12.384;2022-09-09T17:45:17;1.58;;;0.70;;
14933;SDS011;7560;51.364;12.384;2022-09-09T17:50:20;2.15;;;0.70;;
14933;SDS011;7560;51.364;12.384;2022-09-09T17:55:23;1.77;;;0.70;;
14933;SDS011;7560;51.364;12.384;2022-09-09T18:00:26;1.73;;;0.68;;
14933;SDS011;7560;51.364;12.384;2022-09-09T18:05:31;1.38;;;0.68;;
14933;SDS011;7560;51.364;12.384;2022-09-09T18:10:33;0.98;;;0.60;;
14933;SDS011;7560;51.364;12.384;2022-09-09T18:15:36;0.88;;;0.68;;
14933;SDS011;7560;51.364;12.384;2022-09-09T18:20:59;1.83;;;1.05;;
14933;SDS011;7560;51.364;12.384;2022-09-09T18:26:06;3.10;;;1.30;;
14933;SDS011;7560;51.364;12.384;2022-09-09T18:31:15;2.00;;;1.30;;
14933;SDS011;7560;51.364;12.384;2022-09-09T18:36:21;2.50;;;1.40;;
14933;SDS011;7560;51.364;12.384;2022-09-09T18:41:26;3.47;;;1.10;;
14933;SDS011;7560;51.364;12.384;2022-09-09T18:46:36;2.53;;;1.40;;
14933;SDS011;7560;51.364;12.384;2022-09-09T18:51:40;3.55;;;1.15;;
14933;SDS011;7560;51.364;12.384;2022-09-09T18:56:43;2.42;;;1.20;;
14933;SDS011;7560;51.364;12.384;2022-09-09T19:01:46;3.20;;;1.30;;
14933;SDS011;7560;51.364;12.384;2022-09-09T19:06:50;2.70;;;1.48;;
14933;SDS011;7560;51.364;12.384;2022-09-09T19:11:59;3.30;;;1.52;;
14933;SDS011;7560;51.364;12.384;2022-09-09T19:17:01;2.85;;;1.40;;
14933;SDS011;7560;51.364;12.384;2022-09-09T19:22:03;3.90;;;1.55;;
14933;SDS011;7560;51.364;12.384;2022-09-09T19:27:09;2.08;;;1.50;;
14933;SDS011;7560;51.364;12.384;2022-09-09T19:32:10;3.30;;;1.38;;
14933;SDS011;7560;51.364;12.384;2022-09-09T19:37:32;2.25;;;1.40;;
14933;SDS011;7560;51.364;12.384;2022-09-09T19:42:34;2.58;;;1.30;;
14933;SDS011;7560;51.364;12.384;2022-09-09T19:47:36;3.40;;;1.63;;
14933;SDS011;7560;51.364;12.384;2022-09-09T19:52:37;3.33;;;1.45;;
14933;SDS011;7560;51.364;12.384;2022-09-09T19:57:39;2.85;;;1.80;;
14933;SDS011;7560;51.364;12.384;2022-09-09T20:02:41;4.05;;;1.50;;
14933;SDS011;7560;51.364;12.384;2022-09-09T20:08:04;3.47;;;1.48;;
14933;SDS011;7560;51.364;12.384;2022-09-09T20:13:06;3.03;;;1.58;;
14933;SDS011;7560;51.364;12.384;2022-09-09T20:18:07;3.00;;;1.20;;
14933;SDS011;7560;51.364;12.384;2022-09-09T20:23:09;1.63;;;1.23;;
14933;SDS011;7560;51.364;12.384;2022-09-09T20:28:11;2.15;;;1.13;;
14933;SDS011;7560;51.364;12.384;2022-09-09T20:33:13;2.67;;;1.02;;
14933;SDS011;7560;51.364;12.384;2022-09-09T20:38:15;3.28;;;1.10;;
14933;SDS011;7560;51.364;12.384;2022-09-09T20:43:17;2.03;;;1.00;;
14933;SDS011;7560;51.364;12.384;2022-09-09T20:48:20;2.90;;;1.17;;
14933;SDS011;7560;51.364;12.384;2022-09-09T20:53:40;2.20;;;1.50;;
14933;SDS011;7560;51.364;12.384;2022-09-09T20:58:42;3.28;;;1.10;;
14933;SDS011;7560;51.364;12.384;2022-09-09T21:03:44;2.35;;;1.10;;
14933;SDS011;7560;51.364;12.384;2022-09-09T21:08:47;2.10;;;1.40;;
14933;SDS011;7560;51.364;12.384;2022-09-09T21:13:49;2.00;;;1.40;;
14933;SDS011;7560;51.364;12.384;2022-09-09T21:18:51;2.25;;;1.30;;
14933;SDS011;7560;51.364;12.384;2022-09-09T21:23:54;2.08;;;1.50;;
14933;SDS011;7560;51.364;12.384;2022-09-09T21:28:57;2.55;;;1.38;;
14933;SDS011;7560;51.364;12.384;2022-09-09T21:33:59;3.88;;;1.60;;
14933;SDS011;7560;51.364;12.384;2022-09-09T21:39:01;2.60;;;1.45;;
14933;SDS011;7560;51.364;12.384;2022-09-09T21:44:02;2.53;;;1.63;;
14933;SDS011;7560;51.364;12.384;2022-09-09T21:49:04;2.45;;;1.30;;
14933;SDS011;7560;51.364;12.384;2022-09-09T21:54:06;1.30;;;1.20;;
14933;SDS011;7560;51.364;12.384;2022-09-09T21:59:07;2.08;;;1.30;;
14933;SDS011;7560;51.364;12.384;2022-09-09T22:04:09;2.13;;;1.20;;
14933;SDS011;7560;51.364;12.384;2022-09-09T22:09:11;2.58;;;1.35;;
14933;SDS011;7560;51.364;12.384;2022-09-09T22:14:13;1.65;;;1.38;;
14933;SDS011;7560;51.364;12.384;2022-09-09T22:19:18;2.08;;;1.50;;
14933;SDS011;7560;51.364;12.384;2022-09-09T22:24:20;3.17;;;1.42;;
14933;SDS011;7560;51.364;12.384;2022-09-09T22:29:22;1.17;;;1.08;;
14933;SDS011;7560;51.364;12.384;2022-09-09T22:34:23;4.10;;;1.52;;
14933;SDS011;7560;51.364;12.384;2022-09-09T22:39:27;3.60;;;1.58;;
14933;SDS011;7560;51.364;12.384;2022-09-09T22:44:30;1.88;;;1.00;;
14933;SDS011;7560;51.364;12.384;2022-09-09T22:49:34;3.20;;;1.13;;
14933;SDS011;7560;51.364;12.384;2022-09-09T22:54:39;3.83;;;1.30;;
14933;SDS011;7560;51.364;12.384;2022-09-09T22:59:42;2.22;;;1.25;;
14933;SDS011;7560;51.364;12.384;2022-09-09T23:04:45;2.95;;;1.35;;
14933;SDS011;7560;51.364;12.384;2022-09-09T23:09:47;3.22;;;1.33;;
14933;SDS011;7560;51.364;12.384;2022-09-09T23:14:49;2.70;;;1.40;;
14933;SDS011;7560;51.364;12.384;2022-09-09T23:19:51;2.92;;;1.33;;
14933;SDS011;7560;51.364;12.384;2022-09-09T23:24:54;1.65;;;1.40;;
14933;SDS011;7560;51.364;12.384;2022-09-09T23:29:57;1.50;;;1.20;;
14933;SDS011;7560;51.364;12.384;2022-09-09T23:34:59;1.58;;;1.30;;
14933;SDS011;7560;51.364;12.384;2022-09-09T23:40:01;3.42;;;1.63;;
14933;SDS011;7560;51.364;12.384;2022-09-09T23:45:03;2.65;;;1.27;;
14933;SDS011;7560;51.364;12.384;2022-09-09T23:50:05;5.75;;;1.50;;
14933;SDS011;7560;51.364;12.384;2022-09-09T23:55:07;4.97;;;1.60;;
